sensor_id;sensor_type;location;lat;lon;timestamp;temperature;humidity
7542;DHT22;3812;50.006;8.230;2022-12-29T00:01:27;11.20;1.00
7542;DHT22;3812;50.006;8.230;2022-12-29T00:03:54;11.20;1.00
7542;DHT22;3812;50.006;8.230;2022-12-29T00:06:22;11.30;1.00
7542;DHT22;3812;50.006;8.230;2022-12-29T00:08:49;11.30;1.00
7542;DHT22;3812;50.006;8.230;2022-12-29T00:11:18;11.30;1.00
7542;DHT22;3812;50.006;8.230;2022-12-29T00:13:45;11.30;1.00
7542;DHT22;3812;50.006;8.230;2022-12-29T00:16:30;11.30;1.00
7542;DHT22;3812;50.006;8.230;2022-12-29T00:18:57;11.30;1.00
7542;DHT22;3812;50.006;8.230;2022-12-29T00:21:26;11.30;1.00
7542;DHT22;3812;50.006;8.230;2022-12-29T00:24:13;11.30;1.00
7542;DHT22;3812;50.006;8.230;2022-12-29T00:27:11;11.30;1.00
7542;DHT22;3812;50.006;8.230;2022-12-29T00:29:56;11.30;1.00
7542;DHT22;3812;50.006;8.230;2022-12-29T00:32:41;11.30;1.00
7542;DHT22;3812;50.006;8.230;2022-12-29T00:35:28;11.30;1.00
7542;DHT22;3812;50.006;8.230;2022-12-29T00:37:59;11.30;1.00
7542;DHT22;3812;50.006;8.230;2022-12-29T00:40:41;11.30;1.00
7542;DHT22;3812;50.006;8.230;2022-12-29T00:43:26;11.30;1.00
7542;DHT22;3812;50.006;8.230;2022-12-29T00:46:10;11.30;1.00
7542;DHT22;3812;50.006;8.230;2022-12-29T00:48:37;11.30;1.00
7542;DHT22;3812;50.006;8.230;2022-12-29T00:51:22;11.30;1.00
7542;DHT22;3812;50.006;8.230;2022-12-29T00:53:50;11.20;1.00
7542;DHT22;3812;50.006;8.230;2022-12-29T00:56:17;11.20;1.00
7542;DHT22;3812;50.006;8.230;2022-12-29T00:58:44;11.20;1.00
7542;DHT22;3812;50.006;8.230;2022-12-29T01:01:11;11.20;1.00
7542;DHT22;3812;50.006;8.230;2022-12-29T01:03:38;11.20;1.00
7542;DHT22;3812;50.006;8.230;2022-12-29T01:06:08;11.10;1.00
7542;DHT22;3812;50.006;8.230;2022-12-29T01:08:37;11.10;1.00
7542;DHT22;3812;50.006;8.230;2022-12-29T01:11:07;11.10;1.00
7542;DHT22;3812;50.006;8.230;2022-12-29T01:13:35;11.10;1.00
7542;DHT22;3812;50.006;8.230;2022-12-29T01:16:04;11.10;1.00
7542;DHT22;3812;50.006;8.230;2022-12-29T01:18:31;11.10;1.00
7542;DHT22;3812;50.006;8.230;2022-12-29T01:20:59;11.00;1.00
7542;DHT22;3812;50.006;8.230;2022-12-29T01:23:27;11.00;1.00
7542;DHT22;3812;50.006;8.230;2022-12-29T01:25:54;11.00;1.00
7542;DHT22;3812;50.006;8.230;2022-12-29T01:28:24;11.00;1.00
7542;DHT22;3812;50.006;8.230;2022-12-29T01:30:51;11.00;1.00
7542;DHT22;3812;50.006;8.230;2022-12-29T01:33:18;11.00;1.00
7542;DHT22;3812;50.006;8.230;2022-12-29T01:35:45;11.00;1.00
7542;DHT22;3812;50.006;8.230;2022-12-29T01:38:12;11.00;1.00
7542;DHT22;3812;50.006;8.230;2022-12-29T01:40:46;11.00;1.00
7542;DHT22;3812;50.006;8.230;2022-12-29T01:43:13;11.00;1.00
7542;DHT22;3812;50.006;8.230;2022-12-29T01:45:47;11.00;1.00
7542;DHT22;3812;50.006;8.230;2022-12-29T01:48:15;11.00;1.00
7542;DHT22;3812;50.006;8.230;2022-12-29T01:50:49;11.00;1.00
7542;DHT22;3812;50.006;8.230;2022-12-29T01:53:21;11.00;1.00
7542;DHT22;3812;50.006;8.230;2022-12-29T01:55:53;11.00;1.00
7542;DHT22;3812;50.006;8.230;2022-12-29T01:58:22;11.10;1.00
7542;DHT22;3812;50.006;8.230;2022-12-29T02:00:52;11.00;1.00
7542;DHT22;3812;50.006;8.230;2022-12-29T02:03:20;11.00;1.00
7542;DHT22;3812;50.006;8.230;2022-12-29T02:05:51;11.00;1.00
7542;DHT22;3812;50.006;8.230;2022-12-29T02:08:20;10.90;1.00
7542;DHT22;3812;50.006;8.230;2022-12-29T02:10:49;10.80;1.00
7542;DHT22;3812;50.006;8.230;2022-12-29T02:13:16;10.80;1.00
7542;DHT22;3812;50.006;8.230;2022-12-29T02:15:54;10.70;1.00
7542;DHT22;3812;50.006;8.230;2022-12-29T02:18:32;10.70;1.00
7542;DHT22;3812;50.006;8.230;2022-12-29T02:21:23;10.70;1.00
7542;DHT22;3812;50.006;8.230;2022-12-29T02:24:19;10.70;1.00
7542;DHT22;3812;50.006;8.230;2022-12-29T02:27:10;10.60;1.00
7542;DHT22;3812;50.006;8.230;2022-12-29T02:30:07;10.70;1.00
7542;DHT22;3812;50.006;8.230;2022-12-29T02:32:45;10.60;1.00
7542;DHT22;3812;50.006;8.230;2022-12-29T02:35:20;10.60;1.00
7542;DHT22;3812;50.006;8.230;2022-12-29T02:37:58;10.70;1.00
7542;DHT22;3812;50.006;8.230;2022-12-29T02:40:32;10.80;1.00
7542;DHT22;3812;50.006;8.230;2022-12-29T02:43:08;10.80;1.00
7542;DHT22;3812;50.006;8.230;2022-12-29T02:45:43;10.90;1.00
7542;DHT22;3812;50.006;8.230;2022-12-29T02:48:18;11.00;1.00
7542;DHT22;3812;50.006;8.230;2022-12-29T02:50:53;11.00;1.00
7542;DHT22;3812;50.006;8.230;2022-12-29T02:53:23;11.00;1.00
7542;DHT22;3812;50.006;8.230;2022-12-29T02:56:05;11.00;1.00
7542;DHT22;3812;50.006;8.230;2022-12-29T02:58:32;10.90;1.00
7542;DHT22;3812;50.006;8.230;2022-12-29T03:01:11;10.90;1.00
7542;DHT22;3812;50.006;8.230;2022-12-29T03:03:52;10.80;1.00
7542;DHT22;3812;50.006;8.230;2022-12-29T03:06:35;10.80;1.00
7542;DHT22;3812;50.006;8.230;2022-12-29T03:09:16;10.90;1.00
7542;DHT22;3812;50.006;8.230;2022-12-29T03:11:53;11.00;1.00
7542;DHT22;3812;50.006;8.230;2022-12-29T03:14:47;11.10;1.00
7542;DHT22;3812;50.006;8.230;2022-12-29T03:17:38;11.20;1.00
7542;DHT22;3812;50.006;8.230;2022-12-29T03:20:11;11.20;1.00
7542;DHT22;3812;50.006;8.230;2022-12-29T03:22:42;11.30;1.00
7542;DHT22;3812;50.006;8.230;2022-12-29T03:25:15;11.30;1.00
7542;DHT22;3812;50.006;8.230;2022-12-29T03:27:48;11.30;1.00
7542;DHT22;3812;50.006;8.230;2022-12-29T03:30:17;11.30;1.00
7542;DHT22;3812;50.006;8.230;2022-12-29T03:32:47;11.40;1.00
7542;DHT22;3812;50.006;8.230;2022-12-29T03:35:19;11.40;1.00
7542;DHT22;3812;50.006;8.230;2022-12-29T03:37:51;11.40;1.00
7542;DHT22;3812;50.006;8.230;2022-12-29T03:40:21;11.50;1.00
7542;DHT22;3812;50.006;8.230;2022-12-29T03:42:49;11.50;1.00
7542;DHT22;3812;50.006;8.230;2022-12-29T03:45:17;11.60;1.00
7542;DHT22;3812;50.006;8.230;2022-12-29T03:47:44;11.60;1.00
7542;DHT22;3812;50.006;8.230;2022-12-29T03:50:11;11.70;1.00
7542;DHT22;3812;50.006;8.230;2022-12-29T03:52:42;11.70;1.00
7542;DHT22;3812;50.006;8.230;2022-12-29T03:55:09;11.70;1.00
7542;DHT22;3812;50.006;8.230;2022-12-29T03:57:37;11.70;1.00
7542;DHT22;3812;50.006;8.230;2022-12-29T04:00:09;11.70;1.00
7542;DHT22;3812;50.006;8.230;2022-12-29T04:02:44;11.70;1.00
7542;DHT22;3812;50.006;8.230;2022-12-29T04:05:17;11.70;1.00
7542;DHT22;3812;50.006;8.230;2022-12-29T04:07:45;11.80;1.00
7542;DHT22;3812;50.006;8.230;2022-12-29T04:10:13;11.80;1.00
7542;DHT22;3812;50.006;8.230;2022-12-29T04:12:40;11.90;1.00
7542;DHT22;3812;50.006;8.230;2022-12-29T04:15:09;11.90;1.00
7542;DHT22;3812;50.006;8.230;2022-12-29T04:17:36;11.80;1.00
7542;DHT22;3812;50.006;8.230;2022-12-29T04:20:04;11.80;1.00
7542;DHT22;3812;50.006;8.230;2022-12-29T04:22:58;11.80;1.00
7542;DHT22;3812;50.006;8.230;2022-12-29T04:25:25;11.80;1.00
7542;DHT22;3812;50.006;8.230;2022-12-29T04:27:52;11.80;1.00
7542;DHT22;3812;50.006;8.230;2022-12-29T04:30:39;11.80;1.00
7542;DHT22;3812;50.006;8.230;2022-12-29T04:33:22;11.90;1.00
7542;DHT22;3812;50.006;8.230;2022-12-29T04:35:49;11.90;1.00
7542;DHT22;3812;50.006;8.230;2022-12-29T04:38:21;11.90;1.00
7542;DHT22;3812;50.006;8.230;2022-12-29T04:40:49;11.90;1.00
7542;DHT22;3812;50.006;8.230;2022-12-29T04:43:17;11.90;1.00
7542;DHT22;3812;50.006;8.230;2022-12-29T04:46:03;11.90;1.00
7542;DHT22;3812;50.006;8.230;2022-12-29T04:48:38;11.90;1.00
7542;DHT22;3812;50.006;8.230;2022-12-29T04:51:25;11.90;1.00
7542;DHT22;3812;50.006;8.230;2022-12-29T04:53:54;11.80;1.00
7542;DHT22;3812;50.006;8.230;2022-12-29T04:56:22;11.80;1.00
7542;DHT22;3812;50.006;8.230;2022-12-29T04:58:49;11.80;1.00
7542;DHT22;3812;50.006;8.230;2022-12-29T05:01:16;11.80;1.00
7542;DHT22;3812;50.006;8.230;2022-12-29T05:03:43;11.70;1.00
7542;DHT22;3812;50.006;8.230;2022-12-29T05:06:10;11.70;1.00
7542;DHT22;3812;50.006;8.230;2022-12-29T05:08:37;11.60;1.00
7542;DHT22;3812;50.006;8.230;2022-12-29T05:11:06;11.50;1.00
7542;DHT22;3812;50.006;8.230;2022-12-29T05:13:32;11.20;1.00
7542;DHT22;3812;50.006;8.230;2022-12-29T05:16:00;10.90;1.00
7542;DHT22;3812;50.006;8.230;2022-12-29T05:18:28;10.80;1.00
7542;DHT22;3812;50.006;8.230;2022-12-29T05:20:57;10.70;1.00
7542;DHT22;3812;50.006;8.230;2022-12-29T05:23:24;10.70;1.00
7542;DHT22;3812;50.006;8.230;2022-12-29T05:25:56;10.70;1.00
7542;DHT22;3812;50.006;8.230;2022-12-29T05:28:46;10.70;1.00
7542;DHT22;3812;50.006;8.230;2022-12-29T05:31:17;10.70;1.00
7542;DHT22;3812;50.006;8.230;2022-12-29T05:33:44;10.80;1.00
7542;DHT22;3812;50.006;8.230;2022-12-29T05:36:12;10.90;1.00
7542;DHT22;3812;50.006;8.230;2022-12-29T05:38:43;10.90;1.00
7542;DHT22;3812;50.006;8.230;2022-12-29T05:41:10;10.90;1.00
7542;DHT22;3812;50.006;8.230;2022-12-29T05:43:47;10.90;1.00
7542;DHT22;3812;50.006;8.230;2022-12-29T05:46:33;11.00;1.00
7542;DHT22;3812;50.006;8.230;2022-12-29T05:49:19;11.10;1.00
7542;DHT22;3812;50.006;8.230;2022-12-29T05:52:05;11.20;1.00
7542;DHT22;3812;50.006;8.230;2022-12-29T05:54:33;11.30;1.00
7542;DHT22;3812;50.006;8.230;2022-12-29T05:57:01;11.40;1.00
7542;DHT22;3812;50.006;8.230;2022-12-29T05:59:30;11.40;1.00
7542;DHT22;3812;50.006;8.230;2022-12-29T06:01:57;11.50;1.00
7542;DHT22;3812;50.006;8.230;2022-12-29T06:04:24;11.60;1.00
7542;DHT22;3812;50.006;8.230;2022-12-29T06:06:51;11.60;1.00
7542;DHT22;3812;50.006;8.230;2022-12-29T06:09:25;11.60;1.00
7542;DHT22;3812;50.006;8.230;2022-12-29T06:11:53;11.70;1.00
7542;DHT22;3812;50.006;8.230;2022-12-29T06:14:20;11.70;1.00
7542;DHT22;3812;50.006;8.230;2022-12-29T06:16:48;11.70;1.00
7542;DHT22;3812;50.006;8.230;2022-12-29T06:19:16;11.80;1.00
7542;DHT22;3812;50.006;8.230;2022-12-29T06:21:44;11.90;1.00
7542;DHT22;3812;50.006;8.230;2022-12-29T06:24:11;11.80;1.00
7542;DHT22;3812;50.006;8.230;2022-12-29T06:26:38;11.80;1.00
7542;DHT22;3812;50.006;8.230;2022-12-29T06:29:05;11.80;1.00
7542;DHT22;3812;50.006;8.230;2022-12-29T06:31:34;11.80;1.00
7542;DHT22;3812;50.006;8.230;2022-12-29T06:34:02;11.80;1.00
7542;DHT22;3812;50.006;8.230;2022-12-29T06:36:29;11.70;1.00
7542;DHT22;3812;50.006;8.230;2022-12-29T06:38:56;11.50;1.00
7542;DHT22;3812;50.006;8.230;2022-12-29T06:41:23;11.50;1.00
7542;DHT22;3812;50.006;8.230;2022-12-29T06:44:23;11.40;1.00
7542;DHT22;3812;50.006;8.230;2022-12-29T06:46:54;11.40;1.00
7542;DHT22;3812;50.006;8.230;2022-12-29T06:49:24;11.30;1.00
7542;DHT22;3812;50.006;8.230;2022-12-29T06:51:51;11.30;1.00
7542;DHT22;3812;50.006;8.230;2022-12-29T06:54:18;11.40;1.00
7542;DHT22;3812;50.006;8.230;2022-12-29T06:56:44;11.50;1.00
7542;DHT22;3812;50.006;8.230;2022-12-29T06:59:11;11.60;1.00
7542;DHT22;3812;50.006;8.230;2022-12-29T07:01:38;11.60;1.00
7542;DHT22;3812;50.006;8.230;2022-12-29T07:04:05;11.60;1.00
7542;DHT22;3812;50.006;8.230;2022-12-29T07:06:34;11.70;1.00
7542;DHT22;3812;50.006;8.230;2022-12-29T07:09:01;11.70;1.00
7542;DHT22;3812;50.006;8.230;2022-12-29T07:11:27;11.80;1.00
7542;DHT22;3812;50.006;8.230;2022-12-29T07:13:54;11.80;1.00
7542;DHT22;3812;50.006;8.230;2022-12-29T07:16:21;11.90;1.00
7542;DHT22;3812;50.006;8.230;2022-12-29T07:18:48;12.00;1.00
7542;DHT22;3812;50.006;8.230;2022-12-29T07:21:15;12.00;1.00
7542;DHT22;3812;50.006;8.230;2022-12-29T07:23:43;12.00;1.00
7542;DHT22;3812;50.006;8.230;2022-12-29T07:26:12;12.00;1.00
7542;DHT22;3812;50.006;8.230;2022-12-29T07:28:40;12.10;1.00
7542;DHT22;3812;50.006;8.230;2022-12-29T07:31:13;12.10;1.00
7542;DHT22;3812;50.006;8.230;2022-12-29T07:33:41;12.10;1.00
7542;DHT22;3812;50.006;8.230;2022-12-29T07:36:08;12.10;1.00
7542;DHT22;3812;50.006;8.230;2022-12-29T07:38:35;12.00;1.00
7542;DHT22;3812;50.006;8.230;2022-12-29T07:41:04;12.00;1.00
7542;DHT22;3812;50.006;8.230;2022-12-29T07:43:31;12.00;1.00
7542;DHT22;3812;50.006;8.230;2022-12-29T07:46:21;12.10;1.00
7542;DHT22;3812;50.006;8.230;2022-12-29T07:48:48;12.00;1.00
7542;DHT22;3812;50.006;8.230;2022-12-29T07:51:15;12.00;1.00
7542;DHT22;3812;50.006;8.230;2022-12-29T07:53:42;12.00;1.00
7542;DHT22;3812;50.006;8.230;2022-12-29T07:56:10;12.00;1.00
7542;DHT22;3812;50.006;8.230;2022-12-29T07:58:37;11.90;1.00
7542;DHT22;3812;50.006;8.230;2022-12-29T08:01:04;11.80;1.00
7542;DHT22;3812;50.006;8.230;2022-12-29T08:03:31;11.80;1.00
7542;DHT22;3812;50.006;8.230;2022-12-29T08:05:58;11.80;1.00
7542;DHT22;3812;50.006;8.230;2022-12-29T08:08:25;11.80;1.00
7542;DHT22;3812;50.006;8.230;2022-12-29T08:10:52;11.80;1.00
7542;DHT22;3812;50.006;8.230;2022-12-29T08:13:20;11.70;1.00
7542;DHT22;3812;50.006;8.230;2022-12-29T08:15:47;11.60;1.00
7542;DHT22;3812;50.006;8.230;2022-12-29T08:18:14;11.50;1.00
7542;DHT22;3812;50.006;8.230;2022-12-29T08:20:41;11.40;1.00
7542;DHT22;3812;50.006;8.230;2022-12-29T08:23:07;11.30;1.00
7542;DHT22;3812;50.006;8.230;2022-12-29T08:25:34;11.30;1.00
7542;DHT22;3812;50.006;8.230;2022-12-29T08:28:01;11.30;1.00
7542;DHT22;3812;50.006;8.230;2022-12-29T08:30:30;11.40;1.00
7542;DHT22;3812;50.006;8.230;2022-12-29T08:32:56;11.50;1.00
7542;DHT22;3812;50.006;8.230;2022-12-29T08:35:23;11.50;1.00
7542;DHT22;3812;50.006;8.230;2022-12-29T08:37:50;11.50;1.00
7542;DHT22;3812;50.006;8.230;2022-12-29T08:40:17;11.30;1.00
7542;DHT22;3812;50.006;8.230;2022-12-29T08:42:44;11.00;1.00
7542;DHT22;3812;50.006;8.230;2022-12-29T08:45:11;10.80;1.00
7542;DHT22;3812;50.006;8.230;2022-12-29T08:47:39;10.70;1.00
7542;DHT22;3812;50.006;8.230;2022-12-29T08:50:07;10.60;1.00
7542;DHT22;3812;50.006;8.230;2022-12-29T08:52:34;10.50;5.10
7542;DHT22;3812;50.006;8.230;2022-12-29T08:55:01;10.40;12.40
7542;DHT22;3812;50.006;8.230;2022-12-29T08:57:29;10.40;21.40
7542;DHT22;3812;50.006;8.230;2022-12-29T09:00:04;10.30;29.10
7542;DHT22;3812;50.006;8.230;2022-12-29T09:02:31;10.40;35.50
7542;DHT22;3812;50.006;8.230;2022-12-29T09:05:00;10.40;38.30
7542;DHT22;3812;50.006;8.230;2022-12-29T09:07:26;10.40;33.30
7542;DHT22;3812;50.006;8.230;2022-12-29T09:09:53;10.40;39.10
7542;DHT22;3812;50.006;8.230;2022-12-29T09:12:20;10.30;41.70
7542;DHT22;3812;50.006;8.230;2022-12-29T09:14:47;10.30;44.00
7542;DHT22;3812;50.006;8.230;2022-12-29T09:17:14;10.40;46.40
7542;DHT22;3812;50.006;8.230;2022-12-29T09:20:00;10.40;47.00
7542;DHT22;3812;50.006;8.230;2022-12-29T09:22:27;10.30;54.80
7542;DHT22;3812;50.006;8.230;2022-12-29T09:24:54;10.30;66.80
7542;DHT22;3812;50.006;8.230;2022-12-29T09:27:20;10.30;84.00
7542;DHT22;3812;50.006;8.230;2022-12-29T09:29:47;10.30;92.00
7542;DHT22;3812;50.006;8.230;2022-12-29T09:32:14;10.20;91.70
7542;DHT22;3812;50.006;8.230;2022-12-29T09:34:41;10.30;94.20
7542;DHT22;3812;50.006;8.230;2022-12-29T09:37:09;10.30;93.70
7542;DHT22;3812;50.006;8.230;2022-12-29T09:39:36;10.30;93.20
7542;DHT22;3812;50.006;8.230;2022-12-29T09:42:08;10.30;97.00
7542;DHT22;3812;50.006;8.230;2022-12-29T09:44:48;10.30;97.10
7542;DHT22;3812;50.006;8.230;2022-12-29T09:47:17;10.30;94.90
7542;DHT22;3812;50.006;8.230;2022-12-29T09:49:47;10.30;91.20
7542;DHT22;3812;50.006;8.230;2022-12-29T09:52:22;10.30;92.10
7542;DHT22;3812;50.006;8.230;2022-12-29T09:54:53;10.30;89.60
7542;DHT22;3812;50.006;8.230;2022-12-29T09:57:24;10.30;74.60
7542;DHT22;3812;50.006;8.230;2022-12-29T09:59:55;10.30;78.00
7542;DHT22;3812;50.006;8.230;2022-12-29T10:02:37;10.20;71.40
7542;DHT22;3812;50.006;8.230;2022-12-29T10:05:13;10.20;76.90
7542;DHT22;3812;50.006;8.230;2022-12-29T10:07:49;10.10;80.70
7542;DHT22;3812;50.006;8.230;2022-12-29T10:10:33;10.10;72.90
7542;DHT22;3812;50.006;8.230;2022-12-29T10:13:13;10.10;69.50
7542;DHT22;3812;50.006;8.230;2022-12-29T10:15:49;10.20;63.00
7542;DHT22;3812;50.006;8.230;2022-12-29T10:18:41;10.20;46.00
7542;DHT22;3812;50.006;8.230;2022-12-29T10:21:17;10.20;38.80
7542;DHT22;3812;50.006;8.230;2022-12-29T10:23:49;10.20;27.00
7542;DHT22;3812;50.006;8.230;2022-12-29T10:26:18;10.20;22.60
7542;DHT22;3812;50.006;8.230;2022-12-29T10:28:49;10.20;13.10
7542;DHT22;3812;50.006;8.230;2022-12-29T10:31:21;10.20;8.30
7542;DHT22;3812;50.006;8.230;2022-12-29T10:33:53;10.20;8.20
7542;DHT22;3812;50.006;8.230;2022-12-29T10:36:28;10.30;2.30
7542;DHT22;3812;50.006;8.230;2022-12-29T10:39:06;10.30;1.00
7542;DHT22;3812;50.006;8.230;2022-12-29T10:41:43;10.40;1.00
7542;DHT22;3812;50.006;8.230;2022-12-29T10:44:16;10.60;1.00
7542;DHT22;3812;50.006;8.230;2022-12-29T10:46:44;10.80;1.00
7542;DHT22;3812;50.006;8.230;2022-12-29T10:49:17;11.00;1.00
7542;DHT22;3812;50.006;8.230;2022-12-29T10:51:47;11.50;1.00
7542;DHT22;3812;50.006;8.230;2022-12-29T10:54:23;12.10;1.00
7542;DHT22;3812;50.006;8.230;2022-12-29T10:56:56;12.30;1.00
7542;DHT22;3812;50.006;8.230;2022-12-29T10:59:29;12.80;1.00
7542;DHT22;3812;50.006;8.230;2022-12-29T11:02:04;13.00;1.00
7542;DHT22;3812;50.006;8.230;2022-12-29T11:04:48;13.20;1.00
7542;DHT22;3812;50.006;8.230;2022-12-29T11:07:19;13.30;1.00
7542;DHT22;3812;50.006;8.230;2022-12-29T11:09:48;14.10;1.00
7542;DHT22;3812;50.006;8.230;2022-12-29T11:12:19;15.10;1.00
7542;DHT22;3812;50.006;8.230;2022-12-29T11:14:47;14.80;1.00
7542;DHT22;3812;50.006;8.230;2022-12-29T11:17:16;15.00;1.00
7542;DHT22;3812;50.006;8.230;2022-12-29T11:19:43;14.40;1.00
7542;DHT22;3812;50.006;8.230;2022-12-29T11:22:20;13.50;1.00
7542;DHT22;3812;50.006;8.230;2022-12-29T11:24:51;13.40;1.00
7542;DHT22;3812;50.006;8.230;2022-12-29T11:27:20;14.00;1.00
7542;DHT22;3812;50.006;8.230;2022-12-29T11:29:49;14.40;1.00
7542;DHT22;3812;50.006;8.230;2022-12-29T11:32:19;15.20;1.00
7542;DHT22;3812;50.006;8.230;2022-12-29T11:34:46;15.40;1.00
7542;DHT22;3812;50.006;8.230;2022-12-29T11:37:15;15.20;1.00
7542;DHT22;3812;50.006;8.230;2022-12-29T11:39:48;15.20;1.00
7542;DHT22;3812;50.006;8.230;2022-12-29T11:42:23;14.90;1.00
7542;DHT22;3812;50.006;8.230;2022-12-29T11:44:51;14.80;1.00
7542;DHT22;3812;50.006;8.230;2022-12-29T11:47:26;14.60;1.00
7542;DHT22;3812;50.006;8.230;2022-12-29T11:49:56;14.40;1.00
7542;DHT22;3812;50.006;8.230;2022-12-29T11:52:25;14.60;1.00
7542;DHT22;3812;50.006;8.230;2022-12-29T11:54:53;14.50;1.00
7542;DHT22;3812;50.006;8.230;2022-12-29T11:57:23;15.10;1.00
7542;DHT22;3812;50.006;8.230;2022-12-29T11:59:52;15.70;1.00
7542;DHT22;3812;50.006;8.230;2022-12-29T12:02:37;15.60;1.00
7542;DHT22;3812;50.006;8.230;2022-12-29T12:05:17;15.70;1.00
7542;DHT22;3812;50.006;8.230;2022-12-29T12:07:47;14.90;1.00
7542;DHT22;3812;50.006;8.230;2022-12-29T12:10:21;14.20;1.00
7542;DHT22;3812;50.006;8.230;2022-12-29T12:12:58;13.80;1.00
7542;DHT22;3812;50.006;8.230;2022-12-29T12:15:30;13.40;1.00
7542;DHT22;3812;50.006;8.230;2022-12-29T12:18:02;13.20;1.00
7542;DHT22;3812;50.006;8.230;2022-12-29T12:20:38;13.10;1.00
7542;DHT22;3812;50.006;8.230;2022-12-29T12:23:13;13.00;1.00
7542;DHT22;3812;50.006;8.230;2022-12-29T12:25:51;12.90;1.00
7542;DHT22;3812;50.006;8.230;2022-12-29T12:28:26;12.80;1.00
7542;DHT22;3812;50.006;8.230;2022-12-29T12:30:56;12.80;1.00
7542;DHT22;3812;50.006;8.230;2022-12-29T12:33:28;12.70;1.00
7542;DHT22;3812;50.006;8.230;2022-12-29T12:36:14;12.60;1.00
7542;DHT22;3812;50.006;8.230;2022-12-29T12:38:52;12.60;1.00
7542;DHT22;3812;50.006;8.230;2022-12-29T12:41:26;12.50;1.00
7542;DHT22;3812;50.006;8.230;2022-12-29T12:44:04;12.40;1.00
7542;DHT22;3812;50.006;8.230;2022-12-29T12:46:55;12.40;1.00
7542;DHT22;3812;50.006;8.230;2022-12-29T12:52:29;12.60;1.00
7542;DHT22;3812;50.006;8.230;2022-12-29T12:55:18;12.70;1.00
7542;DHT22;3812;50.006;8.230;2022-12-29T12:57:51;12.80;1.00
7542;DHT22;3812;50.006;8.230;2022-12-29T13:00:21;13.10;1.00
7542;DHT22;3812;50.006;8.230;2022-12-29T13:03:03;13.40;1.00
7542;DHT22;3812;50.006;8.230;2022-12-29T13:05:41;13.30;1.00
7542;DHT22;3812;50.006;8.230;2022-12-29T13:08:25;13.30;1.00
7542;DHT22;3812;50.006;8.230;2022-12-29T13:11:02;13.20;1.00
7542;DHT22;3812;50.006;8.230;2022-12-29T13:14:07;13.20;1.00
7542;DHT22;3812;50.006;8.230;2022-12-29T13:16:43;13.10;1.00
7542;DHT22;3812;50.006;8.230;2022-12-29T13:19:19;13.00;1.00
7542;DHT22;3812;50.006;8.230;2022-12-29T13:21:58;12.90;1.00
7542;DHT22;3812;50.006;8.230;2022-12-29T13:24:29;12.90;1.00
7542;DHT22;3812;50.006;8.230;2022-12-29T13:27:02;12.90;1.00
7542;DHT22;3812;50.006;8.230;2022-12-29T13:29:35;13.10;1.00
7542;DHT22;3812;50.006;8.230;2022-12-29T13:32:18;12.90;1.00
7542;DHT22;3812;50.006;8.230;2022-12-29T13:34:56;12.80;1.00
7542;DHT22;3812;50.006;8.230;2022-12-29T13:37:28;12.70;1.00
7542;DHT22;3812;50.006;8.230;2022-12-29T13:39:59;12.70;1.00
7542;DHT22;3812;50.006;8.230;2022-12-29T13:42:28;12.70;1.00
7542;DHT22;3812;50.006;8.230;2022-12-29T13:44:59;12.80;1.00
7542;DHT22;3812;50.006;8.230;2022-12-29T13:47:32;12.70;1.00
7542;DHT22;3812;50.006;8.230;2022-12-29T13:50:03;12.70;1.00
7542;DHT22;3812;50.006;8.230;2022-12-29T13:52:36;12.70;1.00
7542;DHT22;3812;50.006;8.230;2022-12-29T13:55:20;12.70;1.00
7542;DHT22;3812;50.006;8.230;2022-12-29T13:57:56;12.60;1.00
7542;DHT22;3812;50.006;8.230;2022-12-29T14:00:26;12.60;1.00
7542;DHT22;3812;50.006;8.230;2022-12-29T14:03:17;12.60;1.00
7542;DHT22;3812;50.006;8.230;2022-12-29T14:06:05;12.50;1.00
7542;DHT22;3812;50.006;8.230;2022-12-29T14:08:37;12.40;1.00
7542;DHT22;3812;50.006;8.230;2022-12-29T14:11:08;12.40;1.00
7542;DHT22;3812;50.006;8.230;2022-12-29T14:13:38;12.30;1.00
7542;DHT22;3812;50.006;8.230;2022-12-29T14:16:07;12.40;1.00
7542;DHT22;3812;50.006;8.230;2022-12-29T14:18:43;12.70;1.00
7542;DHT22;3812;50.006;8.230;2022-12-29T14:21:18;12.70;1.00
7542;DHT22;3812;50.006;8.230;2022-12-29T14:23:49;12.50;1.00
7542;DHT22;3812;50.006;8.230;2022-12-29T14:26:18;12.50;1.00
7542;DHT22;3812;50.006;8.230;2022-12-29T14:29:16;12.40;1.00
7542;DHT22;3812;50.006;8.230;2022-12-29T14:31:43;12.30;1.00
7542;DHT22;3812;50.006;8.230;2022-12-29T14:34:28;12.20;1.00
7542;DHT22;3812;50.006;8.230;2022-12-29T14:36:57;12.20;1.00
7542;DHT22;3812;50.006;8.230;2022-12-29T14:39:30;12.20;1.00
7542;DHT22;3812;50.006;8.230;2022-12-29T14:42:00;12.20;1.00
7542;DHT22;3812;50.006;8.230;2022-12-29T14:44:27;12.20;1.00
7542;DHT22;3812;50.006;8.230;2022-12-29T14:47:00;12.20;1.00
7542;DHT22;3812;50.006;8.230;2022-12-29T14:49:31;12.20;1.00
7542;DHT22;3812;50.006;8.230;2022-12-29T14:52:06;12.10;1.00
7542;DHT22;3812;50.006;8.230;2022-12-29T14:54:42;12.00;1.00
7542;DHT22;3812;50.006;8.230;2022-12-29T14:57:19;11.90;1.00
7542;DHT22;3812;50.006;8.230;2022-12-29T14:59:48;11.80;1.00
7542;DHT22;3812;50.006;8.230;2022-12-29T15:02:22;11.70;1.00
7542;DHT22;3812;50.006;8.230;2022-12-29T15:04:51;11.50;1.00
7542;DHT22;3812;50.006;8.230;2022-12-29T15:07:20;11.40;1.00
7542;DHT22;3812;50.006;8.230;2022-12-29T15:09:53;11.30;1.00
7542;DHT22;3812;50.006;8.230;2022-12-29T15:12:30;11.30;1.00
7542;DHT22;3812;50.006;8.230;2022-12-29T15:15:00;11.20;1.00
7542;DHT22;3812;50.006;8.230;2022-12-29T15:17:30;11.10;1.00
7542;DHT22;3812;50.006;8.230;2022-12-29T15:19:59;11.10;1.00
7542;DHT22;3812;50.006;8.230;2022-12-29T15:22:27;11.10;1.00
7542;DHT22;3812;50.006;8.230;2022-12-29T15:24:55;11.00;1.00
7542;DHT22;3812;50.006;8.230;2022-12-29T15:27:25;11.00;1.00
7542;DHT22;3812;50.006;8.230;2022-12-29T15:29:56;10.90;1.00
7542;DHT22;3812;50.006;8.230;2022-12-29T15:32:25;10.90;1.00
7542;DHT22;3812;50.006;8.230;2022-12-29T15:34:55;10.90;1.00
7542;DHT22;3812;50.006;8.230;2022-12-29T15:37:26;10.90;1.00
7542;DHT22;3812;50.006;8.230;2022-12-29T15:39:55;10.90;1.00
7542;DHT22;3812;50.006;8.230;2022-12-29T15:42:45;11.00;1.00
7542;DHT22;3812;50.006;8.230;2022-12-29T15:45:16;11.00;1.00
7542;DHT22;3812;50.006;8.230;2022-12-29T15:47:45;10.90;1.00
7542;DHT22;3812;50.006;8.230;2022-12-29T15:50:22;11.00;1.00
7542;DHT22;3812;50.006;8.230;2022-12-29T15:52:51;10.90;1.00
7542;DHT22;3812;50.006;8.230;2022-12-29T15:55:21;10.90;1.00
7542;DHT22;3812;50.006;8.230;2022-12-29T15:57:56;10.90;1.00
7542;DHT22;3812;50.006;8.230;2022-12-29T16:00:25;10.90;1.00
7542;DHT22;3812;50.006;8.230;2022-12-29T16:02:53;10.90;1.00
7542;DHT22;3812;50.006;8.230;2022-12-29T16:05:20;10.90;1.00
7542;DHT22;3812;50.006;8.230;2022-12-29T16:07:56;10.80;1.00
7542;DHT22;3812;50.006;8.230;2022-12-29T16:10:31;10.80;1.00
7542;DHT22;3812;50.006;8.230;2022-12-29T16:13:05;10.70;1.00
7542;DHT22;3812;50.006;8.230;2022-12-29T16:15:32;10.60;1.00
7542;DHT22;3812;50.006;8.230;2022-12-29T16:18:00;10.60;1.00
7542;DHT22;3812;50.006;8.230;2022-12-29T16:20:37;10.50;1.00
7542;DHT22;3812;50.006;8.230;2022-12-29T16:23:18;10.40;1.00
7542;DHT22;3812;50.006;8.230;2022-12-29T16:25:46;10.40;1.00
7542;DHT22;3812;50.006;8.230;2022-12-29T16:28:18;10.40;1.00
7542;DHT22;3812;50.006;8.230;2022-12-29T16:30:46;10.30;1.00
7542;DHT22;3812;50.006;8.230;2022-12-29T16:33:32;10.20;1.00
7542;DHT22;3812;50.006;8.230;2022-12-29T16:36:02;10.20;1.00
7542;DHT22;3812;50.006;8.230;2022-12-29T16:38:33;10.10;1.00
7542;DHT22;3812;50.006;8.230;2022-12-29T16:41:02;10.00;1.00
7542;DHT22;3812;50.006;8.230;2022-12-29T16:43:30;10.00;1.00
7542;DHT22;3812;50.006;8.230;2022-12-29T16:46:18;9.90;1.00
7542;DHT22;3812;50.006;8.230;2022-12-29T16:48:51;9.90;1.00
7542;DHT22;3812;50.006;8.230;2022-12-29T16:51:23;9.90;1.00
7542;DHT22;3812;50.006;8.230;2022-12-29T16:53:57;9.80;1.00